Radome Status


Time Cell Pressure Wind mph Temp Com Gen Blower 1 Blower 2 Blower 3 Trigger Alarms Txt
Local net InWc Avg Peak Avg F Pow Pow State/Spd/Secs State/Spd/Secs HowOn/AcOut/secs Event Present Cnt
15:53:24OFF 2.54 2.3 1.1 1.1 62.33ONOFFDwn/0/0Res/0/0-AC-OFF/0/BL2Run->ON//0
15:54:24OFF 2.51 2.3 0.6 1.1 62.25ONOFFDwn/0/0Opr/1/60-AC-OFF/0///0
15:55:28OFF 2.62 2.4 0.1 0.8 62.24ONOFFDwn/0/0Opr/1/125-AC-OFF/0///0
15:56:28OFF 2.63 2.4 1.2 2.5 62.31ONOFFDwn/0/0Opr/1/185-AC-OFF/0///0
15:57:29OFF 2.61 2.4 1.3 2.5 62.36ONOFFDwn/0/0Opr/1/245-AC-OFF/0///0
15:58:29OFF 2.65 2.5 0.2 1.1 62.10ONOFFDwn/0/0Opr/1/305-AC-OFF/0///0
15:59:33OFF 2.62 2.4 0.8 2.5 61.75ONOFFDwn/0/0Opr/1/370-AC-OFF/0///0
16:00:34OFF 2.62 2.4 0.5 2.1 61.14ONOFFDwn/0/0Opr/1/431-AC-OFF/0///0
16:01:35OFF 2.68 2.5 0.0 0.4 60.66ONOFFDwn/0/0Opr/1/491-AC-OFF/0///0
16:02:40OFF 2.62 2.4 0.0 0.0 60.29ONOFFDwn/0/0Opr/1/556-AC-OFF/0///0
16:03:44OFF 2.62 2.4 0.0 0.0 60.04ONOFFDwn/0/0Opr/1/621-AC-OFF/0///0
16:04:44OFF 2.67 2.5 0.3 1.1 59.82ONOFFDwn/0/0Opr/1/681-AC-OFF/0///0
16:05:45OFF 2.62 2.4 0.1 0.4 59.68ONOFFDwn/0/0Opr/1/741-AC-OFF/0///0
16:06:50OFF 2.62 2.4 0.4 1.1 59.75ONOFFDwn/0/0Opr/1/806-AC-OFF/0///0
16:07:54OFF 2.61 2.4 0.4 1.1 60.10ONOFFDwn/0/0Opr/1/871-AC-OFF/0///0
16:08:54OFF 2.61 2.4 0.0 0.0 60.40ONOFFDwn/0/0Opr/1/931-AC-OFF/0///0
16:09:55OFF 2.62 2.4 0.0 0.0 60.74ONOFFDwn/0/0Opr/1/991-AC-OFF/0///0
16:10:55OFF 2.62 2.4 0.0 0.0 61.17ONOFFDwn/0/0Opr/1/1052-AC-OFF/0///0
16:11:55OFF 2.65 2.5 0.0 0.0 61.33ONOFFDwn/0/0Opr/1/1112-AC-OFF/0///0
16:12:56OFF 2.63 2.4 0.0 0.0 61.25ONOFFDwn/0/0Opr/1/1172-AC-OFF/0///0
16:13:56OFF 2.61 2.4 0.1 0.8 61.06ONOFFDwn/0/0Opr/1/1232-AC-OFF/0///0
16:14:56OFF 2.62 2.4 0.1 0.8 60.78ONOFFDwn/0/0Opr/1/1293-AC-OFF/0///0
16:15:57OFF 2.66 2.5 0.0 0.0 60.48ONOFFDwn/0/0Opr/1/1354-AC-OFF/0///0
16:16:57OFF 2.63 2.5 0.0 0.0 60.30ONOFFDwn/0/0Opr/1/1414-AC-OFF/0///0
16:17:58OFF 2.62 2.4 0.0 0.0 60.26ONOFFDwn/0/0Opr/1/1474-AC-OFF/0///0
16:18:58OFF 2.61 2.4 0.0 0.0 60.40ONOFFDwn/0/0Opr/1/1534-AC-OFF/0///0
16:19:58OFF 2.61 2.4 0.0 0.0 60.72ONOFFDwn/0/0Opr/1/1595-AC-OFF/0///0
16:20:58OFF 2.61 2.4 0.0 0.0 61.00ONOFFDwn/0/0Opr/1/1655-AC-OFF/0///0
16:21:59OFF 2.62 2.4 1.2 2.5 61.17ONOFFDwn/0/0Opr/1/1715-AC-OFF/0///0
16:23:03OFF 2.62 2.4 2.0 2.5 61.29ONOFFDwn/0/0Opr/1/1780-AC-OFF/0///0
16:24:03OFF 2.61 2.4 1.8 3.5 61.42ONOFFDwn/0/0Opr/1/1840-AC-OFF/0///0
16:25:04OFF 2.61 2.4 0.9 2.5 61.56ONOFFDwn/0/0Opr/1/1900-AC-OFF/0///0
16:26:04OFF 2.61 2.4 2.1 3.5 61.73ONOFFDwn/0/0Opr/1/1960-AC-OFF/0///0
16:27:04OFF 2.60 2.4 0.9 2.8 61.87ONOFFDwn/0/0Opr/1/2021-AC-OFF/0///0
16:28:04OFF 2.60 2.4 0.1 0.4 62.00ONOFFDwn/0/0Opr/1/2081-AC-OFF/0///0
16:29:05OFF 2.61 2.4 0.0 0.0 62.25ONOFFDwn/0/0Opr/1/2141-AC-OFF/0///0
16:30:06OFF 2.61 2.4 1.1 2.8 62.50ONOFFDwn/0/0Opr/1/2202-AC-OFF/0///0
16:31:06OFF 2.61 2.4 2.5 4.2 62.53ONOFFDwn/0/0Opr/1/2263-AC-OFF/0///0
16:32:06OFF 2.61 2.4 2.1 4.2 62.50ONOFFDwn/0/0Opr/1/2323-AC-OFF/0///0
16:33:07OFF 2.61 2.4 1.3 3.5 62.60ONOFFDwn/0/0Opr/1/2383-AC-OFF/0///0
16:34:07OFF 2.61 2.4 0.6 1.8 62.75ONOFFDwn/0/0Opr/1/2443-AC-OFF/0///0
16:35:11OFF 2.61 2.4 0.7 2.1 62.85ONOFFDwn/0/0Opr/1/2508-AC-OFF/0///0
16:36:11OFF 2.60 2.4 0.6 1.4 62.85ONOFFDwn/0/0Opr/1/2568-AC-OFF/0///0
16:37:12OFF 2.60 2.4 0.0 0.0 63.08ONOFFDwn/0/0Opr/1/2628-AC-OFF/0///0
16:38:16OFF 2.61 2.4 0.0 0.0 63.36ONOFFDwn/0/0Opr/1/2693-AC-OFF/0///0
16:39:16OFF 2.60 2.4 0.0 0.4 63.51ONOFFDwn/0/0Opr/1/2753-AC-OFF/0///0
16:40:17OFF 2.61 2.4 0.0 0.4 63.60ONOFFDwn/0/0Opr/1/2813-AC-OFF/0///0
16:41:17OFF 2.62 2.4 0.3 1.1 63.76ONOFFDwn/0/0Opr/1/2873-AC-OFF/0///0
16:42:21OFF 2.57 2.4 0.4 1.4 63.95ONOFFDwn/0/0Opr/1/2938-AC-OFF/0///0
16:43:21OFF 2.62 2.4 1.2 3.2 64.11ONOFFDwn/0/0Opr/1/2998-AC-OFF/0///0
16:44:22OFF 2.62 2.4 1.2 3.5 64.12ONOFFDwn/0/0Opr/1/3058-AC-OFF/0///0
16:45:23OFF 2.62 2.5 0.5 2.1 64.01ONOFFDwn/0/0Opr/1/3119-AC-OFF/0///0
16:46:27OFF 2.61 2.4 0.1 0.8 64.16ONOFFDwn/0/0Opr/1/3184-AC-OFF/0///0
16:47:27OFF 2.63 2.5 1.0 2.5 64.29ONOFFDwn/0/0Opr/1/3244-AC-OFF/0///0
16:48:29OFF 2.63 2.5 0.1 1.1 64.02ONOFFDwn/0/0Opr/1/3305-AC-OFF/0///0
16:49:34OFF 2.62 2.4 0.2 0.8 63.73ONOFFDwn/0/0Opr/1/3370-AC-OFF/0///0
16:50:38OFF 2.61 2.4 0.0 0.4 63.60ONOFFDwn/0/0Opr/1/3435-AC-OFF/0///0
16:51:38OFF 2.61 2.4 0.0 0.0 63.65ONOFFDwn/0/0Opr/1/3495-AC-OFF/0///0
16:52:39OFF 2.61 2.4 0.0 0.0 63.80ONOFFDwn/0/0Opr/1/3555-AC-OFF/0///0
16:53:39OFF 2.62 2.4 0.3 0.8 63.76ONOFFDwn/0/0Opr/1/3615-AC-OFF/0///0
16:54:39OFF 2.62 2.4 0.0 0.0 63.44ONOFFDwn/0/0Opr/1/3676-AC-OFF/0///0
16:55:14OFF 2.67 2.5 0.0 0.0 63.07ONONDwn/0/0Opr/1/3706-AC-OFF/0/GenPow->ON//0
16:56:15OFF 2.61 2.4 0.0 0.0 62.85ONONDwn/0/0Opr/1/3771-AC-OFF/0///0
16:57:15OFF 2.62 2.4 0.0 0.4 62.58ONONDwn/0/0Opr/1/3831-AC-OFF/0///0
16:58:19OFF 2.63 2.5 0.0 0.0 62.19ONONDwn/0/0Opr/1/3896-AC-OFF/0///0
16:59:19OFF 2.65 2.5 0.1 0.8 61.72ONONDwn/0/0Opr/1/3956-AC-OFF/0///0
17:00:20OFF 2.62 2.4 0.9 2.8 61.27ONONDwn/0/0Opr/1/4016-AC-OFF/0///0
17:01:20OFF 2.67 2.5 0.1 0.4 60.78ONONDwn/0/0Opr/1/4076-AC-OFF/0///0
17:02:20OFF 2.61 2.4 0.2 0.8 60.36ONONDwn/0/0Opr/1/4137-AC-OFF/0///0
17:03:20OFF 2.61 2.4 0.0 0.4 59.99ONONDwn/0/0Opr/1/4197-AC-OFF/0///0
17:04:21OFF 2.62 2.5 0.0 0.0 59.73ONONDwn/0/0Opr/1/4257-AC-OFF/0///0
17:05:26OFF 2.64 2.5 0.0 0.0 59.63ONONDwn/0/0Opr/1/4322-AC-OFF/0///0
17:06:30OFF 2.64 2.5 0.0 0.0 59.76ONONDwn/0/0Opr/1/4387-AC-OFF/0///0
17:07:15OFF 2.61 2.4 0.0 0.0 59.97ONOFFDwn/0/0Opr/1/4427-AC-OFF/0/GenPow->OFF//0
17:08:16OFF 2.63 2.5 0.0 0.0 60.19ONOFFDwn/0/0Opr/1/4492-AC-OFF/0///0
17:09:20OFF 2.64 2.5 0.0 0.0 60.44ONOFFDwn/0/0Opr/1/4557-AC-OFF/0///0
17:10:20OFF 2.64 2.5 0.0 0.0 60.52ONOFFDwn/0/0Opr/1/4617-AC-OFF/0///0
17:11:21OFF 2.63 2.5 0.0 0.0 60.49ONOFFDwn/0/0Opr/1/4677-AC-OFF/0///0
17:12:21OFF 2.62 2.5 0.0 0.0 60.48ONOFFDwn/0/0Opr/1/4737-AC-OFF/0///0


File ends on 20141028
Logs also available for previous period,
or for other periods.

Blower States: Reseting, Stopped, Starting, Testing, Operating, Faulted, OffLine